sensor_id;sensor_type;location;lat;lon;timestamp;pressure;altitude;pressure_sealevel;temperature;humidity
19884;BME280;10104;50.732;10.174;2022-09-09T00:02:05;97409.84;;;16.88;81.22
19884;BME280;10104;50.732;10.174;2022-09-09T00:04:37;97405.06;;;16.90;80.92
19884;BME280;10104;50.732;10.174;2022-09-09T00:10:09;97404.72;;;16.87;80.43
19884;BME280;10104;50.732;10.174;2022-09-09T00:15:14;97400.78;;;16.89;80.73
19884;BME280;10104;50.732;10.174;2022-09-09T00:17:50;97404.72;;;16.87;80.75
19884;BME280;10104;50.732;10.174;2022-09-09T00:26:04;97404.00;;;16.91;80.13
19884;BME280;10104;50.732;10.174;2022-09-09T00:28:31;97403.69;;;16.88;80.61
19884;BME280;10104;50.732;10.174;2022-09-09T00:30:56;97403.91;;;16.86;80.43
19884;BME280;10104;50.732;10.174;2022-09-09T00:33:20;97394.25;;;16.85;80.79
19884;BME280;10104;50.732;10.174;2022-09-09T00:35:47;97392.53;;;16.79;81.20
19884;BME280;10104;50.732;10.174;2022-09-09T00:38:36;97401.50;;;16.85;80.54
19884;BME280;10104;50.732;10.174;2022-09-09T00:41:22;97405.88;;;16.91;80.17
19884;BME280;10104;50.732;10.174;2022-09-09T00:43:55;97399.06;;;16.83;80.81
19884;BME280;10104;50.732;10.174;2022-09-09T00:51:58;97399.47;;;16.64;82.84
19884;BME280;10104;50.732;10.174;2022-09-09T00:54:24;97396.53;;;16.77;81.43
19884;BME280;10104;50.732;10.174;2022-09-09T00:56:58;97389.41;;;16.82;80.85
19884;BME280;10104;50.732;10.174;2022-09-09T00:59:35;97395.19;;;16.91;79.97
19884;BME280;10104;50.732;10.174;2022-09-09T01:02:09;97390.97;;;16.95;79.67
19884;BME280;10104;50.732;10.174;2022-09-09T01:04:36;97392.69;;;17.01;79.32
19884;BME280;10104;50.732;10.174;2022-09-09T01:07:06;97398.13;;;17.06;78.83
19884;BME280;10104;50.732;10.174;2022-09-09T01:12:40;97391.13;;;17.05;78.51
19884;BME280;10104;50.732;10.174;2022-09-09T01:15:10;97385.84;;;16.93;79.59
19884;BME280;10104;50.732;10.174;2022-09-09T01:17:58;97389.16;;;16.84;80.03
19884;BME280;10104;50.732;10.174;2022-09-09T01:20:23;97391.69;;;16.90;79.34
19884;BME280;10104;50.732;10.174;2022-09-09T01:25:29;97389.56;;;16.92;79.32
19884;BME280;10104;50.732;10.174;2022-09-09T01:27:54;97389.94;;;16.56;82.92
19884;BME280;10104;50.732;10.174;2022-09-09T01:30:18;97392.22;;;16.76;81.21
19884;BME280;10104;50.732;10.174;2022-09-09T01:32:48;97387.19;;;16.79;80.44
19884;BME280;10104;50.732;10.174;2022-09-09T01:35:29;97385.69;;;16.83;80.03
19884;BME280;10104;50.732;10.174;2022-09-09T01:37:53;97390.44;;;16.81;80.90
19884;BME280;10104;50.732;10.174;2022-09-09T01:40:15;97397.28;;;16.89;80.56
19884;BME280;10104;50.732;10.174;2022-09-09T01:42:37;97389.41;;;16.82;81.10
19884;BME280;10104;50.732;10.174;2022-09-09T01:44:58;97389.03;;;16.90;80.43
19884;BME280;10104;50.732;10.174;2022-09-09T01:47:20;97387.53;;;16.83;81.67
19884;BME280;10104;50.732;10.174;2022-09-09T01:49:41;97380.66;;;16.87;81.14
19884;BME280;10104;50.732;10.174;2022-09-09T01:52:03;97395.75;;;16.93;80.58
19884;BME280;10104;50.732;10.174;2022-09-09T01:54:29;97385.94;;;16.98;80.95
19884;BME280;10104;50.732;10.174;2022-09-09T02:08:09;97382.88;;;17.07;81.44
19884;BME280;10104;50.732;10.174;2022-09-09T02:10:42;97390.75;;;16.68;84.23
19884;BME280;10104;50.732;10.174;2022-09-09T02:13:17;97390.44;;;16.81;83.92
19884;BME280;10104;50.732;10.174;2022-09-09T02:18:27;97403.84;;;16.98;82.72
19884;BME280;10104;50.732;10.174;2022-09-09T02:20:53;97403.63;;;16.99;83.00
19884;BME280;10104;50.732;10.174;2022-09-09T02:23:14;97404.66;;;16.98;84.56
19884;BME280;10104;50.732;10.174;2022-09-09T02:25:37;97401.28;;;17.03;83.21
19884;BME280;10104;50.732;10.174;2022-09-09T02:27:58;97395.19;;;17.08;82.81
19884;BME280;10104;50.732;10.174;2022-09-09T02:30:20;97394.78;;;17.16;82.49
19884;BME280;10104;50.732;10.174;2022-09-09T02:32:43;97385.81;;;17.22;82.37
19884;BME280;10104;50.732;10.174;2022-09-09T02:35:09;97390.09;;;17.23;81.92
19884;BME280;10104;50.732;10.174;2022-09-09T02:37:35;97388.72;;;17.20;81.95
19884;BME280;10104;50.732;10.174;2022-09-09T02:39:58;97394.47;;;17.12;83.22
19884;BME280;10104;50.732;10.174;2022-09-09T02:42:20;97397.16;;;17.12;82.97
19884;BME280;10104;50.732;10.174;2022-09-09T02:44:42;97383.63;;;17.19;82.39
19884;BME280;10104;50.732;10.174;2022-09-09T02:50:17;97377.28;;;17.25;81.88
19884;BME280;10104;50.732;10.174;2022-09-09T02:52:19;97377.38;;;17.30;81.44
19884;BME280;10104;50.732;10.174;2022-09-09T02:54:44;97389.13;;;17.29;81.62
19884;BME280;10104;50.732;10.174;2022-09-09T02:57:16;97381.69;;;17.14;83.75
19884;BME280;10104;50.732;10.174;2022-09-09T02:59:40;97374.34;;;17.10;83.48
19884;BME280;10104;50.732;10.174;2022-09-09T03:02:02;97380.03;;;17.13;82.97
19884;BME280;10104;50.732;10.174;2022-09-09T03:04:24;97388.31;;;17.12;83.45
19884;BME280;10104;50.732;10.174;2022-09-09T03:06:46;97381.09;;;17.12;82.80
19884;BME280;10104;50.732;10.174;2022-09-09T03:09:08;97387.50;;;17.11;83.52
19884;BME280;10104;50.732;10.174;2022-09-09T03:11:31;97382.00;;;17.18;82.73
19884;BME280;10104;50.732;10.174;2022-09-09T03:13:54;97389.13;;;17.12;83.34
19884;BME280;10104;50.732;10.174;2022-09-09T03:16:17;97386.28;;;17.02;84.64
19884;BME280;10104;50.732;10.174;2022-09-09T03:18:39;97391.63;;;17.02;84.74
19884;BME280;10104;50.732;10.174;2022-09-09T03:21:00;97391.72;;;17.07;83.99
19884;BME280;10104;50.732;10.174;2022-09-09T03:23:22;97379.22;;;17.13;83.17
19884;BME280;10104;50.732;10.174;2022-09-09T03:25:50;97381.09;;;17.12;82.73
19884;BME280;10104;50.732;10.174;2022-09-09T03:28:12;97379.81;;;17.15;82.43
19884;BME280;10104;50.732;10.174;2022-09-09T03:30:34;97379.38;;;17.06;82.66
19884;BME280;10104;50.732;10.174;2022-09-09T03:32:55;97387.91;;;17.03;82.58
19884;BME280;10104;50.732;10.174;2022-09-09T03:35:18;97379.38;;;16.89;83.34
19884;BME280;10104;50.732;10.174;2022-09-09T03:37:39;97389.34;;;16.94;82.68
19884;BME280;10104;50.732;10.174;2022-09-09T03:40:01;97384.81;;;16.94;82.33
19884;BME280;10104;50.732;10.174;2022-09-09T03:42:23;97383.25;;;16.98;82.10
19884;BME280;10104;50.732;10.174;2022-09-09T03:44:45;97390.75;;;16.96;82.53
19884;BME280;10104;50.732;10.174;2022-09-09T03:47:11;97392.75;;;16.89;82.36
19884;BME280;10104;50.732;10.174;2022-09-09T03:49:32;97383.75;;;16.95;82.07
19884;BME280;10104;50.732;10.174;2022-09-09T03:51:55;97387.72;;;16.93;82.18
19884;BME280;10104;50.732;10.174;2022-09-09T03:54:18;97388.59;;;16.82;83.28
19884;BME280;10104;50.732;10.174;2022-09-09T03:56:39;97384.28;;;16.81;83.06
19884;BME280;10104;50.732;10.174;2022-09-09T03:59:03;97379.19;;;16.79;82.95
19884;BME280;10104;50.732;10.174;2022-09-09T04:01:25;97380.94;;;16.74;83.24
19884;BME280;10104;50.732;10.174;2022-09-09T04:03:46;97377.94;;;16.70;83.17
19884;BME280;10104;50.732;10.174;2022-09-09T04:06:09;97379.50;;;16.66;83.44
19884;BME280;10104;50.732;10.174;2022-09-09T04:08:33;97381.69;;;16.69;83.14
19884;BME280;10104;50.732;10.174;2022-09-09T04:10:57;97370.16;;;16.69;83.07
19884;BME280;10104;50.732;10.174;2022-09-09T04:13:19;97375.88;;;16.72;82.82
19884;BME280;10104;50.732;10.174;2022-09-09T04:15:41;97373.97;;;16.73;82.75
19884;BME280;10104;50.732;10.174;2022-09-09T04:18:02;97375.13;;;16.77;82.52
19884;BME280;10104;50.732;10.174;2022-09-09T04:20:24;97371.78;;;16.70;82.92
19884;BME280;10104;50.732;10.174;2022-09-09T04:22:45;97373.56;;;16.64;82.97
19884;BME280;10104;50.732;10.174;2022-09-09T04:25:07;97377.63;;;16.55;83.95
19884;BME280;10104;50.732;10.174;2022-09-09T04:27:28;97378.03;;;16.47;84.76
19884;BME280;10104;50.732;10.174;2022-09-09T04:29:50;97371.13;;;16.51;84.13
19884;BME280;10104;50.732;10.174;2022-09-09T04:32:11;97371.66;;;16.36;85.65
19884;BME280;10104;50.732;10.174;2022-09-09T04:34:33;97372.69;;;16.47;85.05
19884;BME280;10104;50.732;10.174;2022-09-09T04:36:54;97380.94;;;16.45;85.49
19884;BME280;10104;50.732;10.174;2022-09-09T04:39:18;97383.91;;;16.49;84.81
19884;BME280;10104;50.732;10.174;2022-09-09T04:41:41;97386.59;;;16.49;84.71
19884;BME280;10104;50.732;10.174;2022-09-09T04:44:02;97378.34;;;16.50;84.18
19884;BME280;10104;50.732;10.174;2022-09-09T04:46:24;97384.81;;;16.54;83.82
19884;BME280;10104;50.732;10.174;2022-09-09T04:48:46;97380.06;;;16.56;83.62
19884;BME280;10104;50.732;10.174;2022-09-09T04:51:11;97386.22;;;16.57;83.32
19884;BME280;10104;50.732;10.174;2022-09-09T04:53:33;97391.47;;;16.52;83.66
19884;BME280;10104;50.732;10.174;2022-09-09T04:56:10;97389.03;;;16.50;83.16
19884;BME280;10104;50.732;10.174;2022-09-09T04:58:32;97388.31;;;16.55;83.31
19884;BME280;10104;50.732;10.174;2022-09-09T05:00:54;97382.06;;;16.49;83.42
19884;BME280;10104;50.732;10.174;2022-09-09T05:03:16;97391.34;;;16.58;83.19
19884;BME280;10104;50.732;10.174;2022-09-09T05:05:37;97387.50;;;16.66;83.13
19884;BME280;10104;50.732;10.174;2022-09-09T05:08:06;97372.53;;;16.65;83.06
19884;BME280;10104;50.732;10.174;2022-09-09T05:10:28;97372.03;;;16.68;83.35
19884;BME280;10104;50.732;10.174;2022-09-09T05:12:53;97369.56;;;16.78;83.00
19884;BME280;10104;50.732;10.174;2022-09-09T05:15:15;97374.63;;;16.80;83.20
19884;BME280;10104;50.732;10.174;2022-09-09T05:17:36;97376.81;;;16.66;84.24
19884;BME280;10104;50.732;10.174;2022-09-09T05:19:57;97378.03;;;16.75;83.02
19884;BME280;10104;50.732;10.174;2022-09-09T05:22:20;97381.09;;;16.67;84.39
19884;BME280;10104;50.732;10.174;2022-09-09T05:24:42;97379.47;;;16.54;85.21
19884;BME280;10104;50.732;10.174;2022-09-09T05:27:04;97381.75;;;16.46;86.07
19884;BME280;10104;50.732;10.174;2022-09-09T05:29:26;97386.28;;;16.45;85.53
19884;BME280;10104;50.732;10.174;2022-09-09T05:31:48;97391.72;;;16.50;86.23
19884;BME280;10104;50.732;10.174;2022-09-09T05:34:10;97398.09;;;16.61;86.32
19884;BME280;10104;50.732;10.174;2022-09-09T05:36:31;97397.00;;;16.74;85.50
19884;BME280;10104;50.732;10.174;2022-09-09T05:38:53;97406.44;;;16.93;84.38
19884;BME280;10104;50.732;10.174;2022-09-09T05:41:16;97404.00;;;16.91;84.59
19884;BME280;10104;50.732;10.174;2022-09-09T05:43:38;97407.06;;;16.83;85.31
19884;BME280;10104;50.732;10.174;2022-09-09T05:48:22;97411.56;;;16.94;84.67
19884;BME280;10104;50.732;10.174;2022-09-09T05:50:54;97412.00;;;17.03;84.09
19884;BME280;10104;50.732;10.174;2022-09-09T05:53:15;97414.00;;;16.96;84.60
19884;BME280;10104;50.732;10.174;2022-09-09T05:55:38;97413.78;;;16.86;85.31
19884;BME280;10104;50.732;10.174;2022-09-09T05:57:59;97409.03;;;16.88;85.02
19884;BME280;10104;50.732;10.174;2022-09-09T06:00:21;97403.75;;;16.93;84.44
19884;BME280;10104;50.732;10.174;2022-09-09T06:02:42;97414.38;;;16.88;85.29
19884;BME280;10104;50.732;10.174;2022-09-09T06:05:05;97415.94;;;17.01;84.30
19884;BME280;10104;50.732;10.174;2022-09-09T06:07:27;97423.72;;;17.02;84.64
19884;BME280;10104;50.732;10.174;2022-09-09T06:09:48;97417.66;;;17.07;84.34
19884;BME280;10104;50.732;10.174;2022-09-09T06:12:09;97416.59;;;17.08;84.33
19884;BME280;10104;50.732;10.174;2022-09-09T06:14:31;97419.06;;;17.09;84.72
19884;BME280;10104;50.732;10.174;2022-09-09T06:16:53;97418.25;;;17.25;83.79
19884;BME280;10104;50.732;10.174;2022-09-09T06:19:14;97414.91;;;17.35;83.29
19884;BME280;10104;50.732;10.174;2022-09-09T06:21:37;97415.56;;;17.42;83.29
19884;BME280;10104;50.732;10.174;2022-09-09T06:23:59;97420.13;;;17.42;84.71
19884;BME280;10104;50.732;10.174;2022-09-09T06:26:24;97420.94;;;17.59;83.97
19884;BME280;10104;50.732;10.174;2022-09-09T06:28:49;97426.25;;;17.70;83.89
19884;BME280;10104;50.732;10.174;2022-09-09T06:31:13;97429.06;;;17.81;83.81
19884;BME280;10104;50.732;10.174;2022-09-09T06:33:37;97423.72;;;18.02;82.74
19884;BME280;10104;50.732;10.174;2022-09-09T06:36:03;97421.69;;;18.09;82.97
19884;BME280;10104;50.732;10.174;2022-09-09T06:38:27;97435.09;;;18.09;83.74
19884;BME280;10104;50.732;10.174;2022-09-09T06:40:53;97436.13;;;17.87;85.09
19884;BME280;10104;50.732;10.174;2022-09-09T06:43:16;97432.41;;;18.09;84.00
19884;BME280;10104;50.732;10.174;2022-09-09T06:45:38;97427.22;;;18.03;84.71
19884;BME280;10104;50.732;10.174;2022-09-09T06:47:59;97420.97;;;18.14;83.55
19884;BME280;10104;50.732;10.174;2022-09-09T06:50:21;97418.72;;;18.28;82.58
19884;BME280;10104;50.732;10.174;2022-09-09T06:52:46;97419.88;;;18.32;82.90
19884;BME280;10104;50.732;10.174;2022-09-09T06:55:08;97428.19;;;18.35;82.97
19884;BME280;10104;50.732;10.174;2022-09-09T06:57:30;97423.78;;;18.46;82.41
19884;BME280;10104;50.732;10.174;2022-09-09T06:59:57;97437.06;;;18.36;82.87
19884;BME280;10104;50.732;10.174;2022-09-09T07:02:19;97430.47;;;18.43;82.04
19884;BME280;10104;50.732;10.174;2022-09-09T07:04:41;97432.91;;;18.67;81.63
19884;BME280;10104;50.732;10.174;2022-09-09T07:07:02;97434.59;;;18.73;80.87
19884;BME280;10104;50.732;10.174;2022-09-09T07:09:24;97442.50;;;18.84;81.28
19884;BME280;10104;50.732;10.174;2022-09-09T07:11:48;97437.34;;;19.05;79.89
19884;BME280;10104;50.732;10.174;2022-09-09T07:14:10;97434.16;;;19.08;79.75
19884;BME280;10104;50.732;10.174;2022-09-09T07:16:35;97439.22;;;19.04;79.77
19884;BME280;10104;50.732;10.174;2022-09-09T07:18:58;97436.81;;;19.08;79.26
19884;BME280;10104;50.732;10.174;2022-09-09T07:21:20;97440.94;;;19.15;78.94
19884;BME280;10104;50.732;10.174;2022-09-09T07:23:42;97448.38;;;19.08;79.06
19884;BME280;10104;50.732;10.174;2022-09-09T07:26:12;97440.47;;;18.96;79.96
19884;BME280;10104;50.732;10.174;2022-09-09T07:28:34;97437.81;;;19.23;78.72
19884;BME280;10104;50.732;10.174;2022-09-09T07:30:57;97443.22;;;19.28;78.23
19884;BME280;10104;50.732;10.174;2022-09-09T07:33:19;97444.75;;;19.46;77.40
19884;BME280;10104;50.732;10.174;2022-09-09T07:35:41;97447.53;;;19.56;77.12
19884;BME280;10104;50.732;10.174;2022-09-09T07:38:03;97450.78;;;19.63;77.23
19884;BME280;10104;50.732;10.174;2022-09-09T07:40:28;97450.06;;;19.73;77.13
19884;BME280;10104;50.732;10.174;2022-09-09T07:42:50;97448.91;;;20.01;75.33
19884;BME280;10104;50.732;10.174;2022-09-09T07:45:11;97438.53;;;20.19;73.50
19884;BME280;10104;50.732;10.174;2022-09-09T07:47:33;97450.41;;;20.24;73.45
19884;BME280;10104;50.732;10.174;2022-09-09T07:49:54;97452.16;;;20.50;72.21
19884;BME280;10104;50.732;10.174;2022-09-09T07:52:17;97457.09;;;20.68;71.29
19884;BME280;10104;50.732;10.174;2022-09-09T07:54:40;97459.28;;;20.81;70.92
19884;BME280;10104;50.732;10.174;2022-09-09T07:57:03;97457.66;;;20.75;69.20
19884;BME280;10104;50.732;10.174;2022-09-09T07:59:25;97457.13;;;20.73;69.67
19884;BME280;10104;50.732;10.174;2022-09-09T08:01:49;97448.78;;;20.75;68.57
19884;BME280;10104;50.732;10.174;2022-09-09T08:04:19;97453.91;;;20.76;69.94
19884;BME280;10104;50.732;10.174;2022-09-09T08:06:58;97457.63;;;20.65;69.89
19884;BME280;10104;50.732;10.174;2022-09-09T08:09:20;97459.13;;;20.36;71.33
19884;BME280;10104;50.732;10.174;2022-09-09T08:11:42;97463.84;;;20.24;71.52
19884;BME280;10104;50.732;10.174;2022-09-09T08:14:05;97463.53;;;20.15;72.24
19884;BME280;10104;50.732;10.174;2022-09-09T08:16:30;97461.44;;;20.27;71.45
19884;BME280;10104;50.732;10.174;2022-09-09T08:18:52;97467.09;;;20.31;71.64
19884;BME280;10104;50.732;10.174;2022-09-09T08:21:17;97475.91;;;19.79;73.99
19884;BME280;10104;50.732;10.174;2022-09-09T08:23:41;97467.50;;;20.07;72.74
19884;BME280;10104;50.732;10.174;2022-09-09T08:26:04;97477.31;;;19.87;73.88
19884;BME280;10104;50.732;10.174;2022-09-09T08:28:26;97480.88;;;19.60;75.47
19884;BME280;10104;50.732;10.174;2022-09-09T08:30:47;97481.31;;;19.52;74.69
19884;BME280;10104;50.732;10.174;2022-09-09T08:33:09;97484.09;;;19.35;75.61
19884;BME280;10104;50.732;10.174;2022-09-09T08:35:30;97486.00;;;19.40;74.59
19884;BME280;10104;50.732;10.174;2022-09-09T08:37:54;97484.78;;;19.48;75.37
19884;BME280;10104;50.732;10.174;2022-09-09T08:40:23;97491.09;;;19.63;73.51
19884;BME280;10104;50.732;10.174;2022-09-09T08:42:51;97478.25;;;19.70;74.36
19884;BME280;10104;50.732;10.174;2022-09-09T08:45:56;97477.16;;;20.03;72.41
19884;BME280;10104;50.732;10.174;2022-09-09T08:48:31;97480.03;;;19.92;73.01
19884;BME280;10104;50.732;10.174;2022-09-09T08:50:59;97489.09;;;19.81;72.05
19884;BME280;10104;50.732;10.174;2022-09-09T08:53:27;97486.44;;;19.86;71.99
19884;BME280;10104;50.732;10.174;2022-09-09T08:55:56;97479.22;;;19.91;71.32
19884;BME280;10104;50.732;10.174;2022-09-09T08:58:29;97486.66;;;19.79;73.57
19884;BME280;10104;50.732;10.174;2022-09-09T09:06:06;97482.88;;;20.54;69.13
19884;BME280;10104;50.732;10.174;2022-09-09T09:11:02;97489.16;;;19.91;70.36
19884;BME280;10104;50.732;10.174;2022-09-09T09:13:44;97480.84;;;19.92;70.57
19884;BME280;10104;50.732;10.174;2022-09-09T09:16:23;97474.88;;;20.22;70.49
19884;BME280;10104;50.732;10.174;2022-09-09T09:18:48;97470.25;;;20.54;67.93
19884;BME280;10104;50.732;10.174;2022-09-09T09:21:21;97473.16;;;20.48;68.04
19884;BME280;10104;50.732;10.174;2022-09-09T09:23:59;97474.22;;;20.42;66.94
19884;BME280;10104;50.732;10.174;2022-09-09T09:26:24;97475.97;;;20.31;67.35
19884;BME280;10104;50.732;10.174;2022-09-09T09:28:47;97476.56;;;20.33;66.35
19884;BME280;10104;50.732;10.174;2022-09-09T09:31:10;97480.09;;;20.39;66.73
19884;BME280;10104;50.732;10.174;2022-09-09T09:33:48;97476.69;;;20.58;65.50
19884;BME280;10104;50.732;10.174;2022-09-09T09:36:10;97476.25;;;20.77;63.34
19884;BME280;10104;50.732;10.174;2022-09-09T09:38:36;97474.47;;;21.13;62.91
19884;BME280;10104;50.732;10.174;2022-09-09T09:41:32;97475.09;;;21.45;61.53
19884;BME280;10104;50.732;10.174;2022-09-09T09:43:54;97474.84;;;21.82;60.05
19884;BME280;10104;50.732;10.174;2022-09-09T09:46:20;97472.41;;;22.21;59.13
19884;BME280;10104;50.732;10.174;2022-09-09T09:48:44;97465.41;;;22.05;58.03
19884;BME280;10104;50.732;10.174;2022-09-09T09:51:09;97468.09;;;22.05;57.31
19884;BME280;10104;50.732;10.174;2022-09-09T09:53:33;97467.00;;;21.86;57.06
19884;BME280;10104;50.732;10.174;2022-09-09T09:56:03;97467.31;;;22.14;56.91
19884;BME280;10104;50.732;10.174;2022-09-09T09:58:38;97461.84;;;22.40;56.25
19884;BME280;10104;50.732;10.174;2022-09-09T10:01:24;97470.44;;;22.52;54.19
19884;BME280;10104;50.732;10.174;2022-09-09T10:03:51;97457.84;;;22.27;54.50
19884;BME280;10104;50.732;10.174;2022-09-09T10:06:13;97457.47;;;22.54;53.46
19884;BME280;10104;50.732;10.174;2022-09-09T10:08:44;97460.50;;;22.22;53.03
19884;BME280;10104;50.732;10.174;2022-09-09T10:14:25;97467.03;;;21.80;53.25
19884;BME280;10104;50.732;10.174;2022-09-09T10:17:00;97468.09;;;22.20;54.43
19884;BME280;10104;50.732;10.174;2022-09-09T10:19:33;97455.13;;;22.27;54.09
19884;BME280;10104;50.732;10.174;2022-09-09T10:22:03;97449.38;;;22.54;53.18
19884;BME280;10104;50.732;10.174;2022-09-09T10:26:55;97456.69;;;22.43;53.95
19884;BME280;10104;50.732;10.174;2022-09-09T10:32:42;97457.03;;;21.86;55.43
19884;BME280;10104;50.732;10.174;2022-09-09T10:46:02;97447.59;;;22.14;54.41
19884;BME280;10104;50.732;10.174;2022-09-09T10:48:34;97448.41;;;21.94;53.61
19884;BME280;10104;50.732;10.174;2022-09-09T10:53:40;97446.53;;;21.44;53.58
19884;BME280;10104;50.732;10.174;2022-09-09T10:56:10;97439.00;;;21.61;55.74
19884;BME280;10104;50.732;10.174;2022-09-09T10:58:44;97437.91;;;21.67;54.50
19884;BME280;10104;50.732;10.174;2022-09-09T11:01:31;97443.31;;;21.67;53.58
19884;BME280;10104;50.732;10.174;2022-09-09T11:04:03;97441.94;;;21.80;53.41
19884;BME280;10104;50.732;10.174;2022-09-09T11:06:48;97442.25;;;21.78;54.45
19884;BME280;10104;50.732;10.174;2022-09-09T11:09:19;97437.38;;;21.91;53.06
19884;BME280;10104;50.732;10.174;2022-09-09T11:11:51;97444.13;;;21.98;52.40
19884;BME280;10104;50.732;10.174;2022-09-09T11:14:21;97430.88;;;22.12;51.38
19884;BME280;10104;50.732;10.174;2022-09-09T11:16:50;97441.09;;;22.30;51.15
19884;BME280;10104;50.732;10.174;2022-09-09T11:21:48;97425.19;;;22.93;49.18
19884;BME280;10104;50.732;10.174;2022-09-09T11:26:49;97421.22;;;23.24;48.76
19884;BME280;10104;50.732;10.174;2022-09-09T11:29:38;97424.41;;;23.31;48.54
19884;BME280;10104;50.732;10.174;2022-09-09T11:32:20;97418.88;;;24.09;46.61
19884;BME280;10104;50.732;10.174;2022-09-09T11:40:08;97442.72;;;24.07;45.00
19884;BME280;10104;50.732;10.174;2022-09-09T11:42:31;97440.28;;;24.58;44.25
19884;BME280;10104;50.732;10.174;2022-09-09T11:44:53;97433.63;;;24.27;44.02
19884;BME280;10104;50.732;10.174;2022-09-09T11:47:21;97420.53;;;24.58;42.37
19884;BME280;10104;50.732;10.174;2022-09-09T11:49:45;97426.44;;;24.84;41.16
19884;BME280;10104;50.732;10.174;2022-09-09T11:52:22;97421.59;;;24.62;42.02
19884;BME280;10104;50.732;10.174;2022-09-09T11:54:48;97428.09;;;24.37;43.55
19884;BME280;10104;50.732;10.174;2022-09-09T11:57:24;97428.34;;;24.12;43.90
19884;BME280;10104;50.732;10.174;2022-09-09T11:59:51;97433.00;;;23.77;45.49
19884;BME280;10104;50.732;10.174;2022-09-09T12:02:23;97441.53;;;23.90;45.26
19884;BME280;10104;50.732;10.174;2022-09-09T12:05:09;97431.94;;;23.73;45.35
19884;BME280;10104;50.732;10.174;2022-09-09T12:07:36;97440.22;;;23.53;45.20
19884;BME280;10104;50.732;10.174;2022-09-09T12:12:32;97442.16;;;23.48;46.57
19884;BME280;10104;50.732;10.174;2022-09-09T12:15:00;97430.81;;;23.40;45.90
19884;BME280;10104;50.732;10.174;2022-09-09T12:17:24;97436.84;;;24.00;45.34
19884;BME280;10104;50.732;10.174;2022-09-09T12:19:47;97433.06;;;24.30;44.77
19884;BME280;10104;50.732;10.174;2022-09-09T12:28:18;97429.53;;;24.53;43.34
19884;BME280;10104;50.732;10.174;2022-09-09T12:31:00;97427.59;;;24.78;44.71
19884;BME280;10104;50.732;10.174;2022-09-09T12:33:23;97437.06;;;25.55;43.71
19884;BME280;10104;50.732;10.174;2022-09-09T12:35:59;97426.19;;;26.06;41.16
19884;BME280;10104;50.732;10.174;2022-09-09T12:38:30;97421.38;;;26.03;41.58
19884;BME280;10104;50.732;10.174;2022-09-09T12:40:55;97422.41;;;25.75;41.34
19884;BME280;10104;50.732;10.174;2022-09-09T12:43:20;97427.50;;;27.18;40.34
19884;BME280;10104;50.732;10.174;2022-09-09T12:45:42;97412.75;;;27.77;37.48
19884;BME280;10104;50.732;10.174;2022-09-09T12:48:11;97409.13;;;26.88;38.72
19884;BME280;10104;50.732;10.174;2022-09-09T12:50:53;97417.09;;;26.30;40.38
19884;BME280;10104;50.732;10.174;2022-09-09T12:53:28;97405.59;;;26.19;39.72
19884;BME280;10104;50.732;10.174;2022-09-09T12:55:54;97403.69;;;27.82;38.20
19884;BME280;10104;50.732;10.174;2022-09-09T12:58:18;97390.88;;;28.44;36.39
19884;BME280;10104;50.732;10.174;2022-09-09T13:00:49;97386.59;;;27.23;36.65
19884;BME280;10104;50.732;10.174;2022-09-09T13:03:20;97388.09;;;26.93;36.67
19884;BME280;10104;50.732;10.174;2022-09-09T13:05:44;97381.78;;;26.57;37.15
19884;BME280;10104;50.732;10.174;2022-09-09T13:08:11;97383.31;;;27.35;36.03
19884;BME280;10104;50.732;10.174;2022-09-09T13:10:36;97378.41;;;27.01;35.96
19884;BME280;10104;50.732;10.174;2022-09-09T13:13:21;97382.25;;;27.00;36.64
19884;BME280;10104;50.732;10.174;2022-09-09T13:15:54;97393.53;;;27.74;36.39
19884;BME280;10104;50.732;10.174;2022-09-09T13:18:21;97390.03;;;26.66;37.25
19884;BME280;10104;50.732;10.174;2022-09-09T13:20:47;97378.78;;;26.45;37.37
19884;BME280;10104;50.732;10.174;2022-09-09T13:23:11;97382.59;;;26.44;37.79
19884;BME280;10104;50.732;10.174;2022-09-09T13:25:33;97385.38;;;26.93;37.88
19884;BME280;10104;50.732;10.174;2022-09-09T13:28:02;97382.38;;;27.17;38.10
19884;BME280;10104;50.732;10.174;2022-09-09T13:30:34;97391.13;;;26.78;37.79
19884;BME280;10104;50.732;10.174;2022-09-09T13:35:33;97373.13;;;26.14;39.06
19884;BME280;10104;50.732;10.174;2022-09-09T13:37:55;97371.34;;;26.50;38.96
19884;BME280;10104;50.732;10.174;2022-09-09T13:40:19;97378.44;;;26.19;39.24
19884;BME280;10104;50.732;10.174;2022-09-09T13:42:44;97379.13;;;25.84;39.64
19884;BME280;10104;50.732;10.174;2022-09-09T13:45:14;97384.44;;;25.56;40.76
19884;BME280;10104;50.732;10.174;2022-09-09T13:47:37;97380.91;;;25.42;43.05
19884;BME280;10104;50.732;10.174;2022-09-09T13:49:58;97377.91;;;25.25;43.74
19884;BME280;10104;50.732;10.174;2022-09-09T13:52:20;97372.44;;;25.11;43.86
19884;BME280;10104;50.732;10.174;2022-09-09T13:54:50;97380.50;;;24.97;44.27
19884;BME280;10104;50.732;10.174;2022-09-09T13:57:17;97384.63;;;24.71;45.04
19884;BME280;10104;50.732;10.174;2022-09-09T13:59:39;97380.59;;;24.87;45.60
19884;BME280;10104;50.732;10.174;2022-09-09T14:02:21;97380.56;;;24.92;45.98
19884;BME280;10104;50.732;10.174;2022-09-09T14:04:44;97369.78;;;25.25;46.13
19884;BME280;10104;50.732;10.174;2022-09-09T14:07:11;97364.31;;;25.11;45.77
19884;BME280;10104;50.732;10.174;2022-09-09T14:09:33;97371.59;;;24.73;45.85
19884;BME280;10104;50.732;10.174;2022-09-09T14:11:55;97374.84;;;24.51;45.82
19884;BME280;10104;50.732;10.174;2022-09-09T14:14:16;97376.00;;;24.45;46.92
19884;BME280;10104;50.732;10.174;2022-09-09T14:16:38;97373.91;;;24.42;46.80
19884;BME280;10104;50.732;10.174;2022-09-09T14:18:59;97370.59;;;24.45;46.96